createdAt,value
2023-03-15T00:01:14.451Z,8.88
2023-03-15T00:03:42.663Z,8.84
2023-03-15T00:06:09.869Z,8.79
2023-03-15T00:08:37.033Z,8.82
2023-03-15T00:11:03.904Z,8.89
2023-03-15T00:13:31.516Z,8.90
2023-03-15T00:16:00.676Z,8.86
2023-03-15T00:18:27.720Z,8.89
2023-03-15T00:20:54.689Z,8.85
2023-03-15T00:23:23.004Z,8.78
2023-03-15T00:25:51.650Z,8.73
2023-03-15T00:28:18.852Z,8.74
2023-03-15T00:30:46.115Z,8.73
2023-03-15T00:33:15.152Z,8.67
2023-03-15T00:35:44.187Z,8.63
2023-03-15T00:38:13.232Z,8.61
2023-03-15T00:40:41.946Z,8.58
2023-03-15T00:43:08.845Z,8.55
2023-03-15T00:45:36.463Z,8.49
2023-03-15T00:48:04.306Z,8.42
2023-03-15T00:50:31.079Z,8.33
2023-03-15T00:52:57.785Z,8.29
2023-03-15T00:55:24.437Z,8.24
2023-03-15T00:57:51.097Z,8.17
2023-03-15T01:00:23.564Z,8.09
2023-03-15T01:02:52.465Z,7.99
2023-03-15T01:05:21.268Z,7.93
2023-03-15T01:07:49.023Z,7.85
2023-03-15T01:10:16.576Z,7.82
2023-03-15T01:12:44.221Z,7.79
2023-03-15T01:15:14.312Z,7.73
2023-03-15T01:17:42.161Z,7.67
2023-03-15T01:20:12.097Z,7.63
2023-03-15T01:22:38.875Z,7.56
2023-03-15T01:25:08.643Z,7.50
2023-03-15T01:27:35.660Z,7.47
2023-03-15T01:30:02.880Z,7.38
2023-03-15T01:32:29.638Z,7.34
2023-03-15T01:34:56.766Z,7.33
2023-03-15T01:37:24.037Z,7.43
2023-03-15T01:39:51.190Z,7.46
2023-03-15T01:42:18.017Z,7.43
2023-03-15T01:44:59.328Z,7.38
2023-03-15T01:47:27.149Z,7.31
2023-03-15T01:50:06.390Z,7.27
2023-03-15T01:52:36.726Z,7.21
2023-03-15T01:55:10.639Z,7.17
2023-03-15T01:57:55.594Z,7.10
2023-03-15T02:00:24.487Z,7.08
2023-03-15T02:03:18.224Z,7.10
2023-03-15T02:05:54.061Z,7.08
2023-03-15T02:08:32.331Z,7.04
2023-03-15T02:11:03.428Z,7.01
2023-03-15T02:13:32.882Z,7.02
2023-03-15T02:16:06.124Z,7.04
2023-03-15T02:18:37.962Z,7.08
2023-03-15T02:21:04.742Z,7.16
2023-03-15T02:23:33.424Z,7.17
2023-03-15T02:26:18.358Z,7.18
2023-03-15T02:28:46.274Z,7.15
2023-03-15T02:31:14.268Z,7.05
2023-03-15T02:33:46.560Z,6.99
2023-03-15T02:36:20.439Z,6.93
2023-03-15T02:38:48.868Z,6.87
2023-03-15T02:41:30.119Z,6.85
2023-03-15T02:44:06.266Z,6.85
2023-03-15T02:46:33.923Z,6.84
2023-03-15T02:49:01.915Z,6.82
2023-03-15T02:51:29.689Z,6.79
2023-03-15T02:53:56.976Z,6.80
2023-03-15T02:56:25.804Z,6.82
2023-03-15T02:58:52.644Z,6.86
2023-03-15T03:01:19.599Z,6.92
2023-03-15T03:03:47.327Z,6.95
2023-03-15T03:06:15.685Z,6.97
2023-03-15T03:08:46.572Z,6.97
2023-03-15T03:11:15.475Z,6.91
2023-03-15T03:13:42.811Z,6.89
2023-03-15T03:16:09.866Z,6.89
2023-03-15T03:18:37.161Z,6.88
2023-03-15T03:21:07.360Z,6.85
2023-03-15T03:23:35.827Z,6.84
2023-03-15T03:26:10.769Z,6.79
2023-03-15T03:28:37.493Z,6.75
2023-03-15T03:31:04.788Z,6.69
2023-03-15T03:33:32.100Z,6.63
2023-03-15T03:36:03.781Z,6.56
2023-03-15T03:38:30.704Z,6.52
2023-03-15T03:40:58.799Z,6.46
2023-03-15T03:43:27.355Z,6.41
2023-03-15T03:45:54.092Z,6.40
2023-03-15T03:48:20.784Z,6.34
2023-03-15T03:50:47.549Z,6.29
2023-03-15T03:53:14.210Z,6.29
2023-03-15T03:55:42.140Z,6.29
2023-03-15T03:58:09.231Z,6.32
2023-03-15T04:00:41.182Z,6.32
2023-03-15T04:03:09.061Z,6.30
2023-03-15T04:05:37.648Z,6.29
2023-03-15T04:08:04.905Z,6.29
2023-03-15T04:10:36.668Z,6.31
2023-03-15T04:13:03.543Z,6.30
2023-03-15T04:15:30.905Z,6.28
2023-03-15T04:17:58.357Z,6.27
2023-03-15T04:20:33.860Z,6.27
2023-03-15T04:23:01.774Z,6.24
2023-03-15T04:25:51.186Z,6.22
2023-03-15T04:28:37.489Z,6.19
2023-03-15T04:31:28.560Z,6.12
2023-03-15T04:34:28.950Z,6.09
2023-03-15T04:37:02.952Z,6.01
2023-03-15T04:39:38.702Z,6.03
2023-03-15T04:42:31.049Z,6.13
2023-03-15T04:45:11.406Z,6.21
2023-03-15T04:48:04.602Z,6.29
2023-03-15T04:50:49.718Z,6.38
2023-03-15T04:53:22.311Z,6.46
2023-03-15T04:56:04.728Z,6.52
2023-03-15T04:58:34.681Z,6.59
2023-03-15T05:01:08.624Z,6.64
2023-03-15T05:03:51.065Z,6.73
2023-03-15T05:06:50.668Z,6.80
2023-03-15T05:09:41.372Z,6.87
2023-03-15T05:12:24.970Z,6.95
2023-03-15T05:15:01.276Z,7.04
2023-03-15T05:17:54.532Z,7.18
2023-03-15T05:20:40.326Z,7.36
2023-03-15T05:23:15.704Z,7.47
2023-03-15T05:26:08.610Z,7.59
2023-03-15T05:28:47.496Z,7.73
2023-03-15T05:31:20.419Z,7.87
2023-03-15T05:34:25.819Z,8.01
2023-03-15T05:37:12.387Z,8.08
2023-03-15T05:39:56.404Z,8.19
2023-03-15T05:42:43.142Z,8.30
2023-03-15T05:45:28.222Z,8.37
2023-03-15T05:47:58.132Z,8.40
2023-03-15T05:50:53.956Z,8.45
2023-03-15T05:53:33.792Z,8.47
2023-03-15T05:56:23.881Z,8.53
2023-03-15T05:59:15.207Z,8.58
2023-03-15T06:02:07.126Z,8.64
2023-03-15T06:04:42.568Z,8.68
2023-03-15T06:07:10.339Z,8.76
2023-03-15T06:09:37.935Z,8.85
2023-03-15T06:12:05.142Z,8.97
2023-03-15T06:14:31.936Z,9.11
2023-03-15T06:17:03.236Z,9.23
2023-03-15T06:19:30.590Z,9.34
2023-03-15T06:21:57.635Z,9.38
2023-03-15T06:24:40.562Z,9.41
2023-03-15T06:27:07.710Z,9.45
2023-03-15T06:29:35.362Z,9.48
2023-03-15T06:32:03.022Z,9.52
2023-03-15T06:34:29.869Z,9.52
2023-03-15T06:36:56.621Z,9.50
2023-03-15T06:39:23.559Z,9.50
2023-03-15T06:41:53.388Z,9.52
2023-03-15T06:44:21.055Z,9.55
2023-03-15T06:46:51.565Z,9.59
2023-03-15T06:49:18.249Z,9.64
2023-03-15T06:51:44.941Z,9.70
2023-03-15T06:54:11.704Z,9.74
2023-03-15T06:56:38.728Z,9.77
2023-03-15T06:59:05.612Z,9.83
2023-03-15T07:01:32.850Z,9.91
2023-03-15T07:04:00.514Z,10.03
2023-03-15T07:06:27.847Z,10.17
2023-03-15T07:08:54.604Z,10.33
2023-03-15T07:11:21.236Z,10.51
2023-03-15T07:13:48.193Z,10.69
2023-03-15T07:16:14.755Z,10.89
2023-03-15T07:18:41.449Z,11.16
2023-03-15T07:21:08.145Z,11.45
2023-03-15T07:23:35.133Z,11.63
2023-03-15T07:26:01.909Z,11.70
2023-03-15T07:28:28.831Z,11.80
2023-03-15T07:31:03.397Z,11.82
2023-03-15T07:33:32.335Z,11.89
2023-03-15T07:35:59.906Z,11.95
2023-03-15T07:38:28.304Z,11.99
2023-03-15T07:40:54.953Z,12.01
2023-03-15T07:43:22.264Z,11.96
2023-03-15T07:45:50.879Z,11.90
2023-03-15T07:48:17.914Z,11.83
2023-03-15T07:50:45.262Z,11.75
2023-03-15T07:53:12.618Z,11.69
2023-03-15T07:55:39.579Z,11.59
2023-03-15T07:58:06.616Z,11.50
2023-03-15T08:00:33.343Z,11.46
2023-03-15T08:03:00.549Z,11.47
2023-03-15T08:05:29.178Z,11.49
2023-03-15T08:07:56.119Z,11.59
2023-03-15T08:10:22.967Z,11.67
2023-03-15T08:12:49.605Z,11.74
2023-03-15T08:15:17.468Z,11.71
2023-03-15T08:17:46.099Z,11.70
2023-03-15T08:20:22.325Z,11.78
2023-03-15T08:22:50.738Z,11.94
2023-03-15T08:25:21.527Z,12.09
2023-03-15T08:27:49.196Z,12.15
2023-03-15T08:30:17.447Z,12.12
2023-03-15T08:32:46.016Z,12.08
2023-03-15T08:35:15.815Z,12.07
2023-03-15T08:37:47.164Z,12.02
2023-03-15T08:40:25.021Z,11.95
2023-03-15T08:42:55.438Z,11.93
2023-03-15T08:45:24.642Z,11.87
2023-03-15T08:47:58.966Z,11.77
2023-03-15T08:50:29.439Z,11.73
2023-03-15T08:52:56.117Z,11.67
2023-03-15T08:55:23.179Z,11.66
2023-03-15T08:57:49.914Z,11.67
2023-03-15T09:00:19.637Z,11.69
2023-03-15T09:02:51.389Z,11.71
2023-03-15T09:05:19.488Z,11.66
2023-03-15T09:07:46.583Z,11.62
2023-03-15T09:10:15.596Z,11.55
2023-03-15T09:12:44.638Z,11.51
2023-03-15T09:15:11.735Z,11.53
2023-03-15T09:17:42.066Z,11.59
2023-03-15T09:20:14.264Z,11.61
2023-03-15T09:22:42.345Z,11.74
2023-03-15T09:25:10.378Z,11.82
2023-03-15T09:27:37.328Z,11.95
2023-03-15T09:30:04.839Z,12.13
2023-03-15T09:32:35.707Z,12.35
2023-03-15T09:35:07.714Z,12.57
2023-03-15T09:37:35.040Z,12.79
2023-03-15T09:40:01.798Z,12.98
2023-03-15T09:42:43.210Z,13.14
2023-03-15T09:45:34.792Z,13.32
2023-03-15T09:48:19.962Z,13.48
2023-03-15T09:51:11.605Z,13.62
2023-03-15T09:53:46.016Z,13.72
2023-03-15T09:56:31.201Z,13.75
2023-03-15T09:59:03.664Z,13.72
2023-03-15T10:01:34.199Z,13.72
2023-03-15T10:04:30.422Z,13.77
2023-03-15T10:07:00.359Z,13.80
2023-03-15T10:09:35.089Z,13.86
2023-03-15T10:12:15.349Z,13.92
2023-03-15T10:14:56.904Z,13.97
2023-03-15T10:17:55.937Z,13.98
2023-03-15T10:20:33.639Z,13.98
2023-03-15T10:23:29.129Z,14.04
2023-03-15T10:25:56.962Z,14.12
2023-03-15T10:28:27.901Z,14.12
2023-03-15T10:31:07.859Z,14.13
2023-03-15T10:33:37.252Z,14.13
2023-03-15T10:36:33.449Z,14.15
2023-03-15T10:39:00.036Z,14.18
2023-03-15T10:41:35.506Z,14.24
2023-03-15T10:44:12.500Z,14.36
2023-03-15T10:46:39.322Z,14.56
2023-03-15T10:49:15.360Z,14.77
2023-03-15T10:51:47.805Z,15.15
2023-03-15T10:54:20.622Z,15.97
2023-03-15T10:57:15.242Z,16.76
2023-03-15T11:00:06.119Z,17.13
2023-03-15T11:02:32.980Z,17.57
2023-03-15T11:05:02.321Z,17.95
2023-03-15T11:07:29.123Z,18.76
2023-03-15T11:10:00.355Z,19.85
2023-03-15T11:12:29.439Z,21.07
2023-03-15T11:15:18.770Z,22.19
2023-03-15T11:17:48.306Z,22.87
2023-03-15T11:20:35.171Z,22.82
2023-03-15T11:23:31.271Z,22.29
2023-03-15T11:25:57.932Z,21.49
2023-03-15T11:28:28.245Z,20.86
2023-03-15T11:31:00.409Z,20.37
2023-03-15T11:34:06.597Z,19.82
2023-03-15T11:36:36.893Z,19.26
2023-03-15T11:41:54.640Z,18.40
2023-03-15T11:44:50.815Z,18.03
2023-03-15T11:47:39.730Z,17.81
2023-03-15T11:50:10.354Z,17.65
2023-03-15T11:52:36.994Z,17.49
2023-03-15T11:55:04.467Z,17.36
2023-03-15T11:57:35.810Z,17.21
2023-03-15T12:00:46.277Z,17.15
2023-03-15T12:03:24.714Z,17.13
2023-03-15T12:05:58.909Z,17.01
2023-03-15T12:08:45.660Z,16.89
2023-03-15T12:11:32.450Z,16.86
2023-03-15T12:13:59.260Z,16.84
2023-03-15T12:16:28.894Z,16.68
2023-03-15T12:19:00.994Z,16.57
2023-03-15T12:21:43.971Z,16.58
2023-03-15T12:24:20.638Z,16.56
2023-03-15T12:27:00.843Z,16.61
2023-03-15T12:29:29.626Z,16.62
2023-03-15T12:32:04.620Z,16.71
2023-03-15T12:34:52.755Z,16.78
2023-03-15T12:37:46.947Z,16.81
2023-03-15T12:40:18.492Z,16.89
2023-03-15T12:42:48.411Z,16.93
2023-03-15T12:45:15.059Z,16.99
2023-03-15T12:47:46.700Z,17.10
2023-03-15T12:50:45.122Z,17.29
2023-03-15T12:53:21.956Z,17.52
2023-03-15T12:55:54.137Z,17.66
2023-03-15T12:58:34.488Z,17.78
2023-03-15T13:01:04.829Z,17.89
2023-03-15T13:03:34.701Z,18.03
2023-03-15T13:06:16.114Z,18.17
2023-03-15T13:09:01.703Z,18.33
2023-03-15T13:11:41.444Z,18.43
2023-03-15T13:14:41.166Z,18.50
2023-03-15T13:17:35.172Z,18.41
2023-03-15T13:20:33.037Z,18.29
2023-03-15T13:23:05.828Z,18.19
2023-03-15T13:25:42.483Z,18.09
2023-03-15T13:28:11.765Z,18.06
2023-03-15T13:30:47.402Z,18.01
2023-03-15T13:33:27.366Z,17.94
2023-03-15T13:36:00.761Z,17.87
2023-03-15T13:38:34.947Z,17.82
2023-03-15T13:41:04.372Z,17.74
2023-03-15T13:43:42.615Z,17.69
2023-03-15T13:46:09.591Z,17.64
2023-03-15T13:48:41.297Z,17.60
2023-03-15T13:51:24.697Z,17.53
2023-03-15T13:53:55.011Z,17.45
2023-03-15T13:56:37.387Z,17.35
2023-03-15T13:59:11.774Z,17.23
2023-03-15T14:01:41.777Z,17.07
2023-03-15T14:04:15.693Z,16.80
2023-03-15T14:06:45.130Z,16.65
2023-03-15T14:09:23.828Z,16.51
2023-03-15T14:12:01.905Z,16.29
2023-03-15T14:14:30.529Z,16.13
2023-03-15T14:17:05.447Z,16.00
2023-03-15T14:19:35.118Z,15.74
2023-03-15T14:22:13.170Z,15.52
2023-03-15T14:24:44.005Z,15.26
2023-03-15T14:27:20.141Z,14.98
2023-03-15T14:29:54.916Z,14.68
2023-03-15T14:32:29.252Z,14.44
2023-03-15T14:34:58.922Z,14.21
2023-03-15T14:37:38.908Z,14.05
2023-03-15T14:40:15.401Z,13.91
2023-03-15T14:42:43.736Z,13.72
2023-03-15T14:45:11.090Z,13.51
2023-03-15T14:47:55.579Z,13.31
2023-03-15T14:50:27.195Z,13.06
2023-03-15T14:52:56.273Z,12.85
2023-03-15T14:55:27.140Z,12.62
2023-03-15T14:57:53.912Z,12.44
2023-03-15T15:00:21.170Z,12.21
2023-03-15T15:02:51.549Z,11.93
2023-03-15T15:05:30.470Z,11.73
2023-03-15T15:08:06.738Z,11.57
2023-03-15T15:10:34.297Z,11.43
2023-03-15T15:13:06.839Z,11.32
2023-03-15T15:15:43.906Z,11.18
2023-03-15T15:18:14.918Z,11.08
2023-03-15T15:20:42.854Z,10.97
2023-03-15T15:23:17.343Z,10.91
2023-03-15T15:25:46.558Z,10.84
2023-03-15T15:28:27.355Z,10.80
2023-03-15T15:31:00.363Z,10.71
2023-03-15T15:33:27.281Z,10.65
2023-03-15T15:35:56.178Z,10.59
2023-03-15T15:38:31.664Z,10.54
2023-03-15T15:40:58.279Z,10.45
2023-03-15T15:43:24.991Z,10.40
2023-03-15T15:45:51.645Z,10.34
2023-03-15T15:48:18.480Z,10.21
2023-03-15T15:50:45.329Z,10.10
2023-03-15T15:53:16.556Z,10.01
2023-03-15T15:55:43.808Z,9.93
2023-03-15T15:58:12.143Z,9.80
2023-03-15T16:00:38.950Z,9.73
2023-03-15T16:03:14.584Z,9.64
2023-03-15T16:05:42.058Z,9.57
2023-03-15T16:08:34.605Z,9.43
2023-03-15T16:11:01.448Z,9.27
2023-03-15T16:13:28.270Z,9.13
2023-03-15T16:15:55.080Z,9.01
2023-03-15T16:18:22.151Z,8.93
2023-03-15T16:20:48.866Z,8.84
2023-03-15T16:23:23.123Z,8.76
2023-03-15T16:25:56.094Z,8.67
2023-03-15T16:28:23.223Z,8.54
2023-03-15T16:30:50.520Z,8.42
2023-03-15T16:33:20.006Z,8.30
2023-03-15T16:35:49.649Z,8.16
2023-03-15T16:38:28.451Z,8.02
2023-03-15T16:40:55.099Z,7.91
2023-03-15T16:43:21.917Z,7.84
2023-03-15T16:45:48.882Z,7.80
2023-03-15T16:48:15.913Z,7.71
2023-03-15T16:50:44.101Z,7.60
2023-03-15T16:53:12.887Z,7.49
2023-03-15T16:55:40.227Z,7.37
2023-03-15T16:58:15.807Z,7.29
2023-03-15T17:00:44.468Z,7.22
2023-03-15T17:03:12.064Z,7.15
2023-03-15T17:05:41.120Z,7.11
2023-03-15T17:08:16.980Z,7.08
2023-03-15T17:10:44.338Z,7.06
2023-03-15T17:13:14.152Z,7.05
2023-03-15T17:15:41.595Z,7.04
2023-03-15T17:18:19.422Z,6.99
2023-03-15T17:20:48.637Z,6.91
2023-03-15T17:23:16.777Z,6.85
2023-03-15T17:25:43.618Z,6.79
2023-03-15T17:28:10.779Z,6.72
2023-03-15T17:30:37.848Z,6.69
2023-03-15T17:33:05.237Z,6.70
2023-03-15T17:35:35.749Z,6.68
2023-03-15T17:38:05.450Z,6.64
2023-03-15T17:40:35.301Z,6.58
2023-03-15T17:43:03.199Z,6.49
2023-03-15T17:45:34.083Z,6.40
2023-03-15T17:48:01.589Z,6.30
2023-03-15T17:50:31.133Z,6.24
2023-03-15T17:53:04.486Z,6.19
2023-03-15T17:55:34.307Z,6.12
2023-03-15T17:58:11.592Z,6.06
2023-03-15T18:00:39.257Z,6.06
2023-03-15T18:03:06.098Z,6.03
2023-03-15T18:05:32.944Z,6.02
2023-03-15T18:08:00.489Z,6.03
2023-03-15T18:10:35.313Z,6.03
2023-03-15T18:13:03.590Z,6.02
2023-03-15T18:15:31.171Z,6.01
2023-03-15T18:17:58.335Z,5.98
2023-03-15T18:20:27.556Z,5.95
2023-03-15T18:22:54.681Z,5.92
2023-03-15T18:25:28.371Z,5.86
2023-03-15T18:27:55.339Z,5.83
2023-03-15T18:30:24.316Z,5.84
2023-03-15T18:32:52.995Z,5.83
2023-03-15T18:35:34.450Z,5.77
2023-03-15T18:38:03.354Z,5.78
2023-03-15T18:40:32.120Z,5.77
2023-03-15T18:42:59.932Z,5.77
2023-03-15T18:45:30.207Z,5.74
2023-03-15T18:47:59.164Z,5.74
2023-03-15T18:50:27.227Z,5.74
2023-03-15T18:52:54.185Z,5.72
2023-03-15T18:55:22.727Z,5.77
2023-03-15T18:57:51.737Z,5.78
2023-03-15T19:00:25.262Z,5.74
2023-03-15T19:02:56.687Z,5.68
2023-03-15T19:05:27.306Z,5.67
2023-03-15T19:07:54.061Z,5.67
2023-03-15T19:10:22.619Z,5.67
2023-03-15T19:12:50.090Z,5.64
2023-03-15T19:15:19.205Z,5.59
2023-03-15T19:17:48.185Z,5.54
2023-03-15T19:20:17.838Z,5.51
2023-03-15T19:22:44.584Z,5.50
2023-03-15T19:25:13.334Z,5.49
2023-03-15T19:27:41.698Z,5.44
2023-03-15T19:30:15.822Z,5.37
2023-03-15T19:32:45.127Z,5.26
2023-03-15T19:35:12.056Z,5.21
2023-03-15T19:37:38.837Z,5.19
2023-03-15T19:40:09.019Z,5.17
2023-03-15T19:42:35.704Z,5.11
2023-03-15T19:45:05.681Z,5.03
2023-03-15T19:47:33.271Z,4.89
2023-03-15T19:50:00.995Z,4.86
2023-03-15T19:52:28.592Z,4.85
2023-03-15T19:54:55.815Z,4.81
2023-03-15T19:57:22.608Z,4.80
2023-03-15T19:59:49.300Z,4.77
2023-03-15T20:02:16.347Z,4.78
2023-03-15T20:04:43.089Z,4.75
2023-03-15T20:07:10.648Z,4.72
2023-03-15T20:09:40.977Z,4.72
2023-03-15T20:12:11.195Z,4.73
2023-03-15T20:14:38.352Z,4.75
2023-03-15T20:17:05.398Z,4.76
2023-03-15T20:19:32.345Z,4.81
2023-03-15T20:21:58.982Z,4.84
2023-03-15T20:24:25.709Z,4.86
2023-03-15T20:26:52.974Z,4.88
2023-03-15T20:29:21.763Z,4.91
2023-03-15T20:31:49.154Z,4.96
2023-03-15T20:34:16.769Z,4.95
2023-03-15T20:36:44.341Z,4.96
2023-03-15T20:39:11.056Z,4.96
2023-03-15T20:41:38.529Z,4.97
2023-03-15T20:44:05.371Z,4.94
2023-03-15T20:46:32.377Z,4.88
2023-03-15T20:48:59.062Z,4.79
2023-03-15T20:51:26.566Z,4.72
2023-03-15T20:53:53.468Z,4.71
2023-03-15T20:56:21.428Z,4.69
2023-03-15T20:58:48.279Z,4.65
2023-03-15T21:01:16.283Z,4.60
2023-03-15T21:03:45.014Z,4.55
2023-03-15T21:06:12.760Z,4.53
2023-03-15T21:08:41.084Z,4.52
2023-03-15T21:11:08.268Z,4.51
2023-03-15T21:13:35.279Z,4.50
2023-03-15T21:16:03.938Z,4.52
2023-03-15T21:18:31.733Z,4.52
2023-03-15T21:21:06.800Z,4.46
2023-03-15T21:23:34.384Z,4.42
2023-03-15T21:26:04.109Z,4.37
2023-03-15T21:28:31.333Z,4.33
2023-03-15T21:30:58.637Z,4.31
2023-03-15T21:33:28.851Z,4.30
2023-03-15T21:35:56.485Z,4.33
2023-03-15T21:38:23.256Z,4.36
2023-03-15T21:40:57.687Z,4.37
2023-03-15T21:43:29.091Z,4.37
2023-03-15T21:46:05.298Z,4.36
2023-03-15T21:48:33.412Z,4.32
2023-03-15T21:51:01.447Z,4.26
2023-03-15T21:53:29.210Z,4.26
2023-03-15T21:55:57.245Z,4.22
2023-03-15T21:58:25.763Z,4.17
2023-03-15T22:01:07.188Z,4.15
2023-03-15T22:03:35.481Z,4.15
2023-03-15T22:06:02.776Z,4.16
2023-03-15T22:08:30.036Z,4.11
2023-03-15T22:10:58.184Z,4.10
2023-03-15T22:13:25.644Z,4.05
2023-03-15T22:15:52.795Z,4.01
2023-03-15T22:18:20.070Z,3.96
2023-03-15T22:20:48.129Z,3.91
2023-03-15T22:23:14.821Z,3.88
2023-03-15T22:25:42.415Z,3.84
2023-03-15T22:28:09.495Z,3.82
2023-03-15T22:30:36.200Z,3.80
2023-03-15T22:33:03.043Z,3.75
2023-03-15T22:35:29.810Z,3.73
2023-03-15T22:37:56.401Z,3.68
2023-03-15T22:40:25.182Z,3.68
2023-03-15T22:42:52.265Z,3.63
2023-03-15T22:45:20.097Z,3.62
2023-03-15T22:47:48.506Z,3.64
2023-03-15T22:50:15.872Z,3.64
2023-03-15T22:52:43.027Z,3.65
2023-03-15T22:55:10.883Z,3.65
2023-03-15T22:57:38.039Z,3.67
2023-03-15T23:00:06.855Z,3.66
2023-03-15T23:02:33.564Z,3.61
2023-03-15T23:05:01.087Z,3.59
2023-03-15T23:07:27.924Z,3.57
2023-03-15T23:09:55.431Z,3.56
2023-03-15T23:12:27.110Z,3.57
2023-03-15T23:15:01.991Z,3.55
2023-03-15T23:17:30.806Z,3.48
2023-03-15T23:19:57.547Z,3.44
2023-03-15T23:22:24.390Z,3.40
2023-03-15T23:24:51.129Z,3.41
2023-03-15T23:27:17.979Z,3.42
2023-03-15T23:29:54.118Z,3.38
2023-03-15T23:32:24.314Z,3.34
2023-03-15T23:34:52.956Z,3.34
2023-03-15T23:37:20.251Z,3.28
2023-03-15T23:39:47.328Z,3.27
2023-03-15T23:42:13.988Z,3.25
2023-03-15T23:44:40.739Z,3.23
2023-03-15T23:47:07.717Z,3.22
2023-03-15T23:49:34.426Z,3.22
2023-03-15T23:52:04.643Z,3.22
2023-03-15T23:54:41.717Z,3.23
2023-03-15T23:57:10.511Z,3.23
2023-03-15T23:59:38.540Z,3.22
